Council Bluffs, Iowa
Current Conditions -  °F | °C
As of 10:52 AM on Saturday 25 Oct 2014 (Local Time) from KOMA Reporting Station
Few Clouds Few Clouds  
Wind Chill: 60°   Ceiling: Unl
Heat Index: 60°   Visibility: 10mi
Dew Point: 49°   Wind: 3mph
Humidity: 67%   Direction: 340°NNW
Pressure: 30.12"   Gusts: NA
Location:  41.26°N, 95.85°W
Report Text: KOMA 251552Z 34003KT 10SM FEW200 16/09 A3012 RMK AO2 SLP198 T01560094
Loading
Personal Weather Stations






























Interactive Weather Map New forecast layout! Learn more

10-Day Weather Forecast

Advertisements
Track Severe Weather on mobile